sensor_id;sensor_type;location;lat;lon;timestamp;temperature;humidity
19363;DHT22;9817;50.80926400;5.16316200;2023-07-24T00:00:27;19.90;99.90
19363;DHT22;9817;50.80926400;5.16316200;2023-07-24T00:02:52;20.00;99.90
19363;DHT22;9817;50.80926400;5.16316200;2023-07-24T00:05:19;20.10;99.90
19363;DHT22;9817;50.80926400;5.16316200;2023-07-24T00:07:44;20.10;99.90
19363;DHT22;9817;50.80926400;5.16316200;2023-07-24T00:10:10;20.20;99.90
19363;DHT22;9817;50.80926400;5.16316200;2023-07-24T00:12:36;20.30;99.90
19363;DHT22;9817;50.80926400;5.16316200;2023-07-24T00:15:01;20.20;99.90
19363;DHT22;9817;50.80926400;5.16316200;2023-07-24T00:17:27;20.20;99.90
19363;DHT22;9817;50.80926400;5.16316200;2023-07-24T00:19:53;20.10;99.90
19363;DHT22;9817;50.80926400;5.16316200;2023-07-24T00:22:18;20.20;99.90
19363;DHT22;9817;50.80926400;5.16316200;2023-07-24T00:24:44;20.10;99.90
19363;DHT22;9817;50.80926400;5.16316200;2023-07-24T00:27:09;20.10;99.90
19363;DHT22;9817;50.80926400;5.16316200;2023-07-24T00:29:35;20.10;99.90
19363;DHT22;9817;50.80926400;5.16316200;2023-07-24T00:32:00;20.10;99.90
19363;DHT22;9817;50.80926400;5.16316200;2023-07-24T00:34:26;20.10;99.90
19363;DHT22;9817;50.80926400;5.16316200;2023-07-24T00:36:52;20.20;99.90
19363;DHT22;9817;50.80926400;5.16316200;2023-07-24T00:39:17;20.10;99.90
19363;DHT22;9817;50.80926400;5.16316200;2023-07-24T00:41:43;20.10;99.90
19363;DHT22;9817;50.80926400;5.16316200;2023-07-24T00:44:09;20.20;99.90
19363;DHT22;9817;50.80926400;5.16316200;2023-07-24T00:46:35;20.20;99.90
19363;DHT22;9817;50.80926400;5.16316200;2023-07-24T00:49:02;20.30;99.90
19363;DHT22;9817;50.80926400;5.16316200;2023-07-24T00:51:30;20.20;99.90
19363;DHT22;9817;50.80926400;5.16316200;2023-07-24T00:54:00;20.20;99.90
19363;DHT22;9817;50.80926400;5.16316200;2023-07-24T00:56:26;20.10;99.90
19363;DHT22;9817;50.80926400;5.16316200;2023-07-24T00:58:54;20.10;99.90
19363;DHT22;9817;50.80926400;5.16316200;2023-07-24T01:01:21;20.00;99.90
19363;DHT22;9817;50.80926400;5.16316200;2023-07-24T01:03:47;20.00;99.90
19363;DHT22;9817;50.80926400;5.16316200;2023-07-24T01:06:13;20.10;99.90
19363;DHT22;9817;50.80926400;5.16316200;2023-07-24T01:08:39;19.90;99.90
19363;DHT22;9817;50.80926400;5.16316200;2023-07-24T01:11:28;20.00;99.90
19363;DHT22;9817;50.80926400;5.16316200;2023-07-24T01:14:04;20.20;99.90
19363;DHT22;9817;50.80926400;5.16316200;2023-07-24T01:16:37;20.30;99.90
19363;DHT22;9817;50.80926400;5.16316200;2023-07-24T01:19:19;20.30;99.90
19363;DHT22;9817;50.80926400;5.16316200;2023-07-24T01:25:05;20.50;99.90
19363;DHT22;9817;50.80926400;5.16316200;2023-07-24T01:27:34;20.50;99.90
19363;DHT22;9817;50.80926400;5.16316200;2023-07-24T01:30:00;20.40;99.90
19363;DHT22;9817;50.80926400;5.16316200;2023-07-24T01:32:26;20.40;99.90
19363;DHT22;9817;50.80926400;5.16316200;2023-07-24T01:34:52;20.40;99.90
19363;DHT22;9817;50.80926400;5.16316200;2023-07-24T01:37:20;20.40;99.90
19363;DHT22;9817;50.80926400;5.16316200;2023-07-24T01:39:46;20.30;99.90
19363;DHT22;9817;50.80926400;5.16316200;2023-07-24T01:42:13;20.30;99.90
19363;DHT22;9817;50.80926400;5.16316200;2023-07-24T01:44:39;20.20;99.90
19363;DHT22;9817;50.80926400;5.16316200;2023-07-24T01:47:05;20.10;99.90
19363;DHT22;9817;50.80926400;5.16316200;2023-07-24T01:49:30;19.90;99.90
19363;DHT22;9817;50.80926400;5.16316200;2023-07-24T01:51:56;19.90;99.90
19363;DHT22;9817;50.80926400;5.16316200;2023-07-24T01:54:23;19.90;99.90
19363;DHT22;9817;50.80926400;5.16316200;2023-07-24T01:56:48;19.80;99.90
19363;DHT22;9817;50.80926400;5.16316200;2023-07-24T01:59:14;19.70;99.90
19363;DHT22;9817;50.80926400;5.16316200;2023-07-24T02:01:40;19.60;99.90
19363;DHT22;9817;50.80926400;5.16316200;2023-07-24T02:04:06;19.50;99.90
19363;DHT22;9817;50.80926400;5.16316200;2023-07-24T02:06:32;19.50;99.90
19363;DHT22;9817;50.80926400;5.16316200;2023-07-24T02:08:57;19.50;99.90
19363;DHT22;9817;50.80926400;5.16316200;2023-07-24T02:11:23;19.50;99.90
19363;DHT22;9817;50.80926400;5.16316200;2023-07-24T02:13:48;19.40;99.90
19363;DHT22;9817;50.80926400;5.16316200;2023-07-24T02:16:14;19.30;99.90
19363;DHT22;9817;50.80926400;5.16316200;2023-07-24T02:18:42;19.40;99.90
19363;DHT22;9817;50.80926400;5.16316200;2023-07-24T02:21:08;19.30;99.90
19363;DHT22;9817;50.80926400;5.16316200;2023-07-24T02:23:35;19.40;99.90
19363;DHT22;9817;50.80926400;5.16316200;2023-07-24T02:26:01;19.40;99.90
19363;DHT22;9817;50.80926400;5.16316200;2023-07-24T02:28:26;19.40;99.90
19363;DHT22;9817;50.80926400;5.16316200;2023-07-24T02:30:52;19.40;99.90
19363;DHT22;9817;50.80926400;5.16316200;2023-07-24T02:33:21;19.60;99.90
19363;DHT22;9817;50.80926400;5.16316200;2023-07-24T02:35:47;19.60;99.90
19363;DHT22;9817;50.80926400;5.16316200;2023-07-24T02:38:12;19.70;99.90
19363;DHT22;9817;50.80926400;5.16316200;2023-07-24T02:40:40;19.70;99.90
19363;DHT22;9817;50.80926400;5.16316200;2023-07-24T02:43:06;19.60;99.90
19363;DHT22;9817;50.80926400;5.16316200;2023-07-24T02:45:36;19.40;99.90
19363;DHT22;9817;50.80926400;5.16316200;2023-07-24T02:48:02;19.50;99.90
19363;DHT22;9817;50.80926400;5.16316200;2023-07-24T02:50:28;19.40;99.90
19363;DHT22;9817;50.80926400;5.16316200;2023-07-24T02:52:53;19.30;99.90
19363;DHT22;9817;50.80926400;5.16316200;2023-07-24T02:55:19;19.20;99.90
19363;DHT22;9817;50.80926400;5.16316200;2023-07-24T02:57:45;19.20;99.90
19363;DHT22;9817;50.80926400;5.16316200;2023-07-24T03:00:11;19.30;99.90
19363;DHT22;9817;50.80926400;5.16316200;2023-07-24T03:02:38;19.30;99.90
19363;DHT22;9817;50.80926400;5.16316200;2023-07-24T03:05:03;19.30;99.90
19363;DHT22;9817;50.80926400;5.16316200;2023-07-24T03:07:29;19.40;99.90
19363;DHT22;9817;50.80926400;5.16316200;2023-07-24T03:09:55;19.40;99.90
19363;DHT22;9817;50.80926400;5.16316200;2023-07-24T03:12:21;19.40;99.90
19363;DHT22;9817;50.80926400;5.16316200;2023-07-24T03:14:47;19.30;99.90
19363;DHT22;9817;50.80926400;5.16316200;2023-07-24T03:17:13;19.30;99.90
19363;DHT22;9817;50.80926400;5.16316200;2023-07-24T03:19:38;19.30;99.90
19363;DHT22;9817;50.80926400;5.16316200;2023-07-24T03:22:04;19.20;99.90
19363;DHT22;9817;50.80926400;5.16316200;2023-07-24T03:24:30;19.20;99.90
19363;DHT22;9817;50.80926400;5.16316200;2023-07-24T03:26:55;19.30;99.90
19363;DHT22;9817;50.80926400;5.16316200;2023-07-24T03:29:21;19.30;99.90
19363;DHT22;9817;50.80926400;5.16316200;2023-07-24T03:31:46;19.40;99.90
19363;DHT22;9817;50.80926400;5.16316200;2023-07-24T03:34:12;19.50;99.90
19363;DHT22;9817;50.80926400;5.16316200;2023-07-24T03:36:37;19.50;99.90
19363;DHT22;9817;50.80926400;5.16316200;2023-07-24T03:39:06;19.50;99.90
19363;DHT22;9817;50.80926400;5.16316200;2023-07-24T03:41:32;19.40;99.90
19363;DHT22;9817;50.80926400;5.16316200;2023-07-24T03:43:58;19.30;99.90
19363;DHT22;9817;50.80926400;5.16316200;2023-07-24T03:46:24;19.30;99.90
19363;DHT22;9817;50.80926400;5.16316200;2023-07-24T03:48:49;19.30;99.90
19363;DHT22;9817;50.80926400;5.16316200;2023-07-24T03:51:16;19.20;99.90
19363;DHT22;9817;50.80926400;5.16316200;2023-07-24T03:53:41;19.20;99.90
19363;DHT22;9817;50.80926400;5.16316200;2023-07-24T03:56:07;19.20;99.90
19363;DHT22;9817;50.80926400;5.16316200;2023-07-24T03:58:33;19.20;99.90
19363;DHT22;9817;50.80926400;5.16316200;2023-07-24T04:00:58;19.30;99.90
19363;DHT22;9817;50.80926400;5.16316200;2023-07-24T04:03:24;19.40;99.90
19363;DHT22;9817;50.80926400;5.16316200;2023-07-24T04:05:49;19.30;99.90
19363;DHT22;9817;50.80926400;5.16316200;2023-07-24T04:08:15;19.30;99.90
19363;DHT22;9817;50.80926400;5.16316200;2023-07-24T04:10:41;19.30;99.90
19363;DHT22;9817;50.80926400;5.16316200;2023-07-24T04:13:06;19.40;99.90
19363;DHT22;9817;50.80926400;5.16316200;2023-07-24T04:15:32;19.30;99.90
19363;DHT22;9817;50.80926400;5.16316200;2023-07-24T04:17:58;19.30;99.90
19363;DHT22;9817;50.80926400;5.16316200;2023-07-24T04:20:23;19.40;99.90
19363;DHT22;9817;50.80926400;5.16316200;2023-07-24T04:22:49;19.50;99.90
19363;DHT22;9817;50.80926400;5.16316200;2023-07-24T04:25:15;19.20;99.90
19363;DHT22;9817;50.80926400;5.16316200;2023-07-24T04:27:41;19.20;99.90
19363;DHT22;9817;50.80926400;5.16316200;2023-07-24T04:30:07;19.30;99.90
19363;DHT22;9817;50.80926400;5.16316200;2023-07-24T04:32:33;19.20;99.90
19363;DHT22;9817;50.80926400;5.16316200;2023-07-24T04:34:58;19.30;99.90
19363;DHT22;9817;50.80926400;5.16316200;2023-07-24T04:37:24;19.30;99.90
19363;DHT22;9817;50.80926400;5.16316200;2023-07-24T04:39:49;19.50;99.90
19363;DHT22;9817;50.80926400;5.16316200;2023-07-24T04:42:15;19.50;99.90
19363;DHT22;9817;50.80926400;5.16316200;2023-07-24T04:44:40;19.40;99.90
19363;DHT22;9817;50.80926400;5.16316200;2023-07-24T04:47:06;19.40;99.90
19363;DHT22;9817;50.80926400;5.16316200;2023-07-24T04:49:32;19.40;99.90
19363;DHT22;9817;50.80926400;5.16316200;2023-07-24T04:51:58;19.60;99.90
19363;DHT22;9817;50.80926400;5.16316200;2023-07-24T04:54:24;19.60;99.90
19363;DHT22;9817;50.80926400;5.16316200;2023-07-24T04:56:50;19.70;99.90
19363;DHT22;9817;50.80926400;5.16316200;2023-07-24T04:59:16;19.70;99.90
19363;DHT22;9817;50.80926400;5.16316200;2023-07-24T05:01:41;19.70;99.90
19363;DHT22;9817;50.80926400;5.16316200;2023-07-24T05:04:07;19.90;99.90
19363;DHT22;9817;50.80926400;5.16316200;2023-07-24T05:06:33;19.90;99.90
19363;DHT22;9817;50.80926400;5.16316200;2023-07-24T05:09:01;20.00;99.90
19363;DHT22;9817;50.80926400;5.16316200;2023-07-24T05:11:26;20.10;99.90
19363;DHT22;9817;50.80926400;5.16316200;2023-07-24T05:13:52;20.20;99.90
19363;DHT22;9817;50.80926400;5.16316200;2023-07-24T05:16:18;20.20;99.90
19363;DHT22;9817;50.80926400;5.16316200;2023-07-24T05:18:43;20.10;99.90
19363;DHT22;9817;50.80926400;5.16316200;2023-07-24T05:21:09;19.90;99.90
19363;DHT22;9817;50.80926400;5.16316200;2023-07-24T05:23:35;19.90;99.90
19363;DHT22;9817;50.80926400;5.16316200;2023-07-24T05:26:02;19.80;99.90
19363;DHT22;9817;50.80926400;5.16316200;2023-07-24T05:28:29;19.90;99.90
19363;DHT22;9817;50.80926400;5.16316200;2023-07-24T05:30:55;19.70;99.90
19363;DHT22;9817;50.80926400;5.16316200;2023-07-24T05:33:21;19.80;99.90
19363;DHT22;9817;50.80926400;5.16316200;2023-07-24T05:35:48;19.70;99.90
19363;DHT22;9817;50.80926400;5.16316200;2023-07-24T05:38:13;19.80;99.90
19363;DHT22;9817;50.80926400;5.16316200;2023-07-24T05:40:39;19.90;99.90
19363;DHT22;9817;50.80926400;5.16316200;2023-07-24T05:43:04;19.70;99.90
19363;DHT22;9817;50.80926400;5.16316200;2023-07-24T05:45:30;19.50;99.90
19363;DHT22;9817;50.80926400;5.16316200;2023-07-24T05:47:56;19.40;99.90
19363;DHT22;9817;50.80926400;5.16316200;2023-07-24T05:50:21;19.20;99.90
19363;DHT22;9817;50.80926400;5.16316200;2023-07-24T05:52:47;19.10;99.90
19363;DHT22;9817;50.80926400;5.16316200;2023-07-24T05:55:12;19.00;99.90
19363;DHT22;9817;50.80926400;5.16316200;2023-07-24T05:57:38;19.00;99.90
19363;DHT22;9817;50.80926400;5.16316200;2023-07-24T06:00:06;19.00;99.90
19363;DHT22;9817;50.80926400;5.16316200;2023-07-24T06:02:32;18.90;99.90
19363;DHT22;9817;50.80926400;5.16316200;2023-07-24T06:04:58;18.90;99.90
19363;DHT22;9817;50.80926400;5.16316200;2023-07-24T06:07:23;18.90;99.90
19363;DHT22;9817;50.80926400;5.16316200;2023-07-24T06:09:49;19.10;99.90
19363;DHT22;9817;50.80926400;5.16316200;2023-07-24T06:12:15;19.10;99.90
19363;DHT22;9817;50.80926400;5.16316200;2023-07-24T06:14:40;19.20;99.90
19363;DHT22;9817;50.80926400;5.16316200;2023-07-24T06:17:06;19.30;99.90
19363;DHT22;9817;50.80926400;5.16316200;2023-07-24T06:19:31;19.40;99.90
19363;DHT22;9817;50.80926400;5.16316200;2023-07-24T06:21:57;19.40;99.90
19363;DHT22;9817;50.80926400;5.16316200;2023-07-24T06:24:23;19.40;99.90
19363;DHT22;9817;50.80926400;5.16316200;2023-07-24T06:26:49;19.40;99.90
19363;DHT22;9817;50.80926400;5.16316200;2023-07-24T06:29:15;19.40;99.90
19363;DHT22;9817;50.80926400;5.16316200;2023-07-24T06:31:41;19.60;99.90
19363;DHT22;9817;50.80926400;5.16316200;2023-07-24T06:34:07;19.70;99.90
19363;DHT22;9817;50.80926400;5.16316200;2023-07-24T06:36:33;19.70;99.90
19363;DHT22;9817;50.80926400;5.16316200;2023-07-24T06:38:58;19.80;99.90
19363;DHT22;9817;50.80926400;5.16316200;2023-07-24T06:41:24;19.80;99.90
19363;DHT22;9817;50.80926400;5.16316200;2023-07-24T06:43:51;19.90;99.90
19363;DHT22;9817;50.80926400;5.16316200;2023-07-24T06:46:16;19.90;99.90
19363;DHT22;9817;50.80926400;5.16316200;2023-07-24T06:48:42;19.90;99.90
19363;DHT22;9817;50.80926400;5.16316200;2023-07-24T06:51:08;19.80;99.90
19363;DHT22;9817;50.80926400;5.16316200;2023-07-24T06:53:33;19.70;99.90
19363;DHT22;9817;50.80926400;5.16316200;2023-07-24T06:55:59;19.80;99.90
19363;DHT22;9817;50.80926400;5.16316200;2023-07-24T06:58:24;19.80;99.90
19363;DHT22;9817;50.80926400;5.16316200;2023-07-24T07:00:50;20.00;99.90
19363;DHT22;9817;50.80926400;5.16316200;2023-07-24T07:03:16;20.20;99.90
19363;DHT22;9817;50.80926400;5.16316200;2023-07-24T07:05:41;20.40;99.90
19363;DHT22;9817;50.80926400;5.16316200;2023-07-24T07:08:07;20.30;99.90
19363;DHT22;9817;50.80926400;5.16316200;2023-07-24T07:10:32;20.30;99.90
19363;DHT22;9817;50.80926400;5.16316200;2023-07-24T07:12:58;20.30;99.90
19363;DHT22;9817;50.80926400;5.16316200;2023-07-24T07:15:24;20.40;99.90
19363;DHT22;9817;50.80926400;5.16316200;2023-07-24T07:17:49;20.30;99.90
19363;DHT22;9817;50.80926400;5.16316200;2023-07-24T07:20:15;20.60;99.90
19363;DHT22;9817;50.80926400;5.16316200;2023-07-24T07:22:41;20.80;99.90
19363;DHT22;9817;50.80926400;5.16316200;2023-07-24T07:25:06;21.00;99.90
19363;DHT22;9817;50.80926400;5.16316200;2023-07-24T07:27:32;21.20;99.90
19363;DHT22;9817;50.80926400;5.16316200;2023-07-24T07:29:58;21.60;99.90
19363;DHT22;9817;50.80926400;5.16316200;2023-07-24T07:32:23;22.10;99.90
19363;DHT22;9817;50.80926400;5.16316200;2023-07-24T07:34:50;22.30;99.90
19363;DHT22;9817;50.80926400;5.16316200;2023-07-24T07:37:16;22.20;99.90
19363;DHT22;9817;50.80926400;5.16316200;2023-07-24T07:39:41;22.30;99.90
19363;DHT22;9817;50.80926400;5.16316200;2023-07-24T07:42:07;22.60;99.90
19363;DHT22;9817;50.80926400;5.16316200;2023-07-24T07:44:33;23.00;99.90
19363;DHT22;9817;50.80926400;5.16316200;2023-07-24T07:46:58;23.10;99.90
19363;DHT22;9817;50.80926400;5.16316200;2023-07-24T07:49:24;23.20;99.90
19363;DHT22;9817;50.80926400;5.16316200;2023-07-24T07:51:49;23.20;99.90
19363;DHT22;9817;50.80926400;5.16316200;2023-07-24T07:54:15;23.20;99.90
19363;DHT22;9817;50.80926400;5.16316200;2023-07-24T07:56:41;23.20;99.90
19363;DHT22;9817;50.80926400;5.16316200;2023-07-24T07:59:07;23.70;99.90
19363;DHT22;9817;50.80926400;5.16316200;2023-07-24T08:01:33;25.40;99.90
19363;DHT22;9817;50.80926400;5.16316200;2023-07-24T08:03:58;25.70;99.90
19363;DHT22;9817;50.80926400;5.16316200;2023-07-24T08:06:24;25.60;99.90
19363;DHT22;9817;50.80926400;5.16316200;2023-07-24T08:08:50;25.70;99.90
19363;DHT22;9817;50.80926400;5.16316200;2023-07-24T08:11:15;25.50;99.90
19363;DHT22;9817;50.80926400;5.16316200;2023-07-24T08:13:41;25.00;99.90
19363;DHT22;9817;50.80926400;5.16316200;2023-07-24T08:16:14;24.20;99.90
19363;DHT22;9817;50.80926400;5.16316200;2023-07-24T08:18:47;23.50;99.90
19363;DHT22;9817;50.80926400;5.16316200;2023-07-24T08:21:14;22.90;99.90
19363;DHT22;9817;50.80926400;5.16316200;2023-07-24T08:23:40;22.60;99.90
19363;DHT22;9817;50.80926400;5.16316200;2023-07-24T08:26:06;22.40;99.90
19363;DHT22;9817;50.80926400;5.16316200;2023-07-24T08:28:32;22.30;99.90
19363;DHT22;9817;50.80926400;5.16316200;2023-07-24T08:31:00;22.10;99.90
19363;DHT22;9817;50.80926400;5.16316200;2023-07-24T08:33:27;22.10;99.90
19363;DHT22;9817;50.80926400;5.16316200;2023-07-24T08:36:04;22.30;99.90
19363;DHT22;9817;50.80926400;5.16316200;2023-07-24T08:38:30;22.60;99.90
19363;DHT22;9817;50.80926400;5.16316200;2023-07-24T08:43:28;22.50;99.90
19363;DHT22;9817;50.80926400;5.16316200;2023-07-24T08:45:55;22.40;99.90
19363;DHT22;9817;50.80926400;5.16316200;2023-07-24T08:48:22;22.70;99.90
19363;DHT22;9817;50.80926400;5.16316200;2023-07-24T08:50:50;22.80;99.90
19363;DHT22;9817;50.80926400;5.16316200;2023-07-24T08:53:16;23.20;99.90
19363;DHT22;9817;50.80926400;5.16316200;2023-07-24T08:55:44;23.30;99.90
19363;DHT22;9817;50.80926400;5.16316200;2023-07-24T08:58:10;23.20;99.90
19363;DHT22;9817;50.80926400;5.16316200;2023-07-24T09:00:36;23.00;99.90
19363;DHT22;9817;50.80926400;5.16316200;2023-07-24T09:03:01;22.90;99.90
19363;DHT22;9817;50.80926400;5.16316200;2023-07-24T09:05:27;22.80;99.90
19363;DHT22;9817;50.80926400;5.16316200;2023-07-24T09:07:53;22.50;99.90
19363;DHT22;9817;50.80926400;5.16316200;2023-07-24T09:10:24;22.20;99.90
19363;DHT22;9817;50.80926400;5.16316200;2023-07-24T09:12:51;22.20;99.90
19363;DHT22;9817;50.80926400;5.16316200;2023-07-24T09:15:16;22.10;99.90
19363;DHT22;9817;50.80926400;5.16316200;2023-07-24T09:17:52;22.20;99.90
19363;DHT22;9817;50.80926400;5.16316200;2023-07-24T09:20:18;22.10;99.90
19363;DHT22;9817;50.80926400;5.16316200;2023-07-24T09:22:51;21.80;99.90
19363;DHT22;9817;50.80926400;5.16316200;2023-07-24T09:25:17;21.70;99.90
19363;DHT22;9817;50.80926400;5.16316200;2023-07-24T09:27:44;21.60;99.90
19363;DHT22;9817;50.80926400;5.16316200;2023-07-24T09:30:14;21.40;99.90
19363;DHT22;9817;50.80926400;5.16316200;2023-07-24T09:32:40;21.20;99.90
19363;DHT22;9817;50.80926400;5.16316200;2023-07-24T09:35:16;21.00;99.90
19363;DHT22;9817;50.80926400;5.16316200;2023-07-24T09:37:43;20.80;99.90
19363;DHT22;9817;50.80926400;5.16316200;2023-07-24T09:40:10;20.90;99.90
19363;DHT22;9817;50.80926400;5.16316200;2023-07-24T09:42:37;21.00;99.90
19363;DHT22;9817;50.80926400;5.16316200;2023-07-24T09:45:04;21.00;99.90
19363;DHT22;9817;50.80926400;5.16316200;2023-07-24T09:47:30;21.20;99.90
19363;DHT22;9817;50.80926400;5.16316200;2023-07-24T09:49:56;21.40;99.90
19363;DHT22;9817;50.80926400;5.16316200;2023-07-24T09:52:23;21.50;99.90
19363;DHT22;9817;50.80926400;5.16316200;2023-07-24T09:55:19;21.50;99.90
19363;DHT22;9817;50.80926400;5.16316200;2023-07-24T09:57:48;21.00;99.90
19363;DHT22;9817;50.80926400;5.16316200;2023-07-24T10:00:17;20.30;99.90
19363;DHT22;9817;50.80926400;5.16316200;2023-07-24T10:02:42;19.90;99.90
19363;DHT22;9817;50.80926400;5.16316200;2023-07-24T10:05:10;19.60;99.90
19363;DHT22;9817;50.80926400;5.16316200;2023-07-24T10:07:36;19.30;99.90
19363;DHT22;9817;50.80926400;5.16316200;2023-07-24T10:10:03;19.30;99.90
19363;DHT22;9817;50.80926400;5.16316200;2023-07-24T10:12:29;19.20;99.90
19363;DHT22;9817;50.80926400;5.16316200;2023-07-24T10:14:57;19.10;99.90
19363;DHT22;9817;50.80926400;5.16316200;2023-07-24T10:17:41;19.20;99.90
19363;DHT22;9817;50.80926400;5.16316200;2023-07-24T10:20:09;19.00;99.90
19363;DHT22;9817;50.80926400;5.16316200;2023-07-24T10:22:36;19.10;99.90
19363;DHT22;9817;50.80926400;5.16316200;2023-07-24T10:25:03;19.20;99.90
19363;DHT22;9817;50.80926400;5.16316200;2023-07-24T10:27:29;19.30;99.90
19363;DHT22;9817;50.80926400;5.16316200;2023-07-24T10:30:00;19.60;99.90
19363;DHT22;9817;50.80926400;5.16316200;2023-07-24T10:32:25;20.30;99.90
19363;DHT22;9817;50.80926400;5.16316200;2023-07-24T10:35:17;20.80;99.90
19363;DHT22;9817;50.80926400;5.16316200;2023-07-24T10:37:43;21.30;99.90
19363;DHT22;9817;50.80926400;5.16316200;2023-07-24T10:40:19;21.40;99.90
19363;DHT22;9817;50.80926400;5.16316200;2023-07-24T10:42:45;21.90;99.90
19363;DHT22;9817;50.80926400;5.16316200;2023-07-24T10:45:11;22.40;99.90
19363;DHT22;9817;50.80926400;5.16316200;2023-07-24T10:47:37;22.70;99.90
19363;DHT22;9817;50.80926400;5.16316200;2023-07-24T10:50:03;22.60;99.90
19363;DHT22;9817;50.80926400;5.16316200;2023-07-24T10:52:30;22.40;99.90
19363;DHT22;9817;50.80926400;5.16316200;2023-07-24T10:54:56;22.10;99.90
19363;DHT22;9817;50.80926400;5.16316200;2023-07-24T10:57:26;21.80;99.90
19363;DHT22;9817;50.80926400;5.16316200;2023-07-24T10:59:52;21.50;99.90
19363;DHT22;9817;50.80926400;5.16316200;2023-07-24T11:02:17;21.40;99.90
19363;DHT22;9817;50.80926400;5.16316200;2023-07-24T11:04:43;21.30;99.90
19363;DHT22;9817;50.80926400;5.16316200;2023-07-24T11:07:09;21.20;99.90
19363;DHT22;9817;50.80926400;5.16316200;2023-07-24T11:09:36;21.10;99.90
19363;DHT22;9817;50.80926400;5.16316200;2023-07-24T11:12:15;21.10;99.90
19363;DHT22;9817;50.80926400;5.16316200;2023-07-24T11:14:52;21.40;99.90
19363;DHT22;9817;50.80926400;5.16316200;2023-07-24T11:17:21;21.80;99.90
19363;DHT22;9817;50.80926400;5.16316200;2023-07-24T11:19:47;22.10;99.90
19363;DHT22;9817;50.80926400;5.16316200;2023-07-24T11:22:13;22.60;99.90
19363;DHT22;9817;50.80926400;5.16316200;2023-07-24T11:24:43;23.20;99.90
19363;DHT22;9817;50.80926400;5.16316200;2023-07-24T11:27:14;23.30;99.90
19363;DHT22;9817;50.80926400;5.16316200;2023-07-24T11:29:40;23.10;99.90
19363;DHT22;9817;50.80926400;5.16316200;2023-07-24T11:32:06;23.10;99.90
19363;DHT22;9817;50.80926400;5.16316200;2023-07-24T11:34:32;23.00;99.90
19363;DHT22;9817;50.80926400;5.16316200;2023-07-24T11:36:58;23.10;99.90
19363;DHT22;9817;50.80926400;5.16316200;2023-07-24T11:39:24;23.40;99.90
19363;DHT22;9817;50.80926400;5.16316200;2023-07-24T11:41:50;23.20;99.90
19363;DHT22;9817;50.80926400;5.16316200;2023-07-24T11:44:27;23.40;99.90
19363;DHT22;9817;50.80926400;5.16316200;2023-07-24T11:47:03;23.50;99.90
19363;DHT22;9817;50.80926400;5.16316200;2023-07-24T11:49:30;23.80;99.90
19363;DHT22;9817;50.80926400;5.16316200;2023-07-24T11:52:06;24.10;99.90
19363;DHT22;9817;50.80926400;5.16316200;2023-07-24T11:54:35;24.20;99.90
19363;DHT22;9817;50.80926400;5.16316200;2023-07-24T11:57:01;24.30;99.90
19363;DHT22;9817;50.80926400;5.16316200;2023-07-24T11:59:27;24.40;99.90
19363;DHT22;9817;50.80926400;5.16316200;2023-07-24T12:01:53;24.20;99.90
19363;DHT22;9817;50.80926400;5.16316200;2023-07-24T12:04:19;24.10;99.90
19363;DHT22;9817;50.80926400;5.16316200;2023-07-24T12:06:46;24.00;99.90
19363;DHT22;9817;50.80926400;5.16316200;2023-07-24T12:09:12;23.90;99.90
19363;DHT22;9817;50.80926400;5.16316200;2023-07-24T12:11:44;23.90;99.90
19363;DHT22;9817;50.80926400;5.16316200;2023-07-24T12:14:10;23.30;99.90
19363;DHT22;9817;50.80926400;5.16316200;2023-07-24T12:16:36;22.90;99.90
19363;DHT22;9817;50.80926400;5.16316200;2023-07-24T12:19:02;22.50;99.90
19363;DHT22;9817;50.80926400;5.16316200;2023-07-24T12:21:28;22.20;99.90
19363;DHT22;9817;50.80926400;5.16316200;2023-07-24T12:23:53;22.00;99.90
19363;DHT22;9817;50.80926400;5.16316200;2023-07-24T12:26:19;21.80;99.90
19363;DHT22;9817;50.80926400;5.16316200;2023-07-24T12:28:44;21.50;99.90
19363;DHT22;9817;50.80926400;5.16316200;2023-07-24T12:31:10;21.60;99.90
19363;DHT22;9817;50.80926400;5.16316200;2023-07-24T12:33:36;21.60;99.90
19363;DHT22;9817;50.80926400;5.16316200;2023-07-24T12:36:01;21.50;99.90
19363;DHT22;9817;50.80926400;5.16316200;2023-07-24T12:38:27;21.20;99.90
19363;DHT22;9817;50.80926400;5.16316200;2023-07-24T12:40:53;21.40;99.90
19363;DHT22;9817;50.80926400;5.16316200;2023-07-24T12:43:19;21.50;99.90
19363;DHT22;9817;50.80926400;5.16316200;2023-07-24T12:45:44;21.60;99.90
19363;DHT22;9817;50.80926400;5.16316200;2023-07-24T12:48:10;21.70;99.90
19363;DHT22;9817;50.80926400;5.16316200;2023-07-24T12:50:36;22.20;99.90
19363;DHT22;9817;50.80926400;5.16316200;2023-07-24T12:53:01;22.50;99.90
19363;DHT22;9817;50.80926400;5.16316200;2023-07-24T12:55:27;22.90;99.90
19363;DHT22;9817;50.80926400;5.16316200;2023-07-24T12:57:55;23.20;99.90
19363;DHT22;9817;50.80926400;5.16316200;2023-07-24T13:00:21;23.30;99.90
19363;DHT22;9817;50.80926400;5.16316200;2023-07-24T13:02:47;23.50;99.90
19363;DHT22;9817;50.80926400;5.16316200;2023-07-24T13:05:12;23.80;99.90
19363;DHT22;9817;50.80926400;5.16316200;2023-07-24T13:07:38;24.00;99.90
19363;DHT22;9817;50.80926400;5.16316200;2023-07-24T13:10:04;23.70;99.90
19363;DHT22;9817;50.80926400;5.16316200;2023-07-24T13:12:30;23.60;99.90
19363;DHT22;9817;50.80926400;5.16316200;2023-07-24T13:14:55;23.40;99.90
19363;DHT22;9817;50.80926400;5.16316200;2023-07-24T13:17:21;23.30;99.90
19363;DHT22;9817;50.80926400;5.16316200;2023-07-24T13:19:47;23.30;99.90
19363;DHT22;9817;50.80926400;5.16316200;2023-07-24T13:22:12;23.10;99.90
19363;DHT22;9817;50.80926400;5.16316200;2023-07-24T13:24:38;23.30;99.90
19363;DHT22;9817;50.80926400;5.16316200;2023-07-24T13:27:04;23.50;99.90
19363;DHT22;9817;50.80926400;5.16316200;2023-07-24T13:29:30;23.70;99.90
19363;DHT22;9817;50.80926400;5.16316200;2023-07-24T13:31:56;23.90;99.90
19363;DHT22;9817;50.80926400;5.16316200;2023-07-24T13:34:24;23.60;99.90
19363;DHT22;9817;50.80926400;5.16316200;2023-07-24T13:36:49;23.20;99.90